createdAt,value
2018-03-30T00:01:34.029Z,33.03
2018-03-30T00:04:01.171Z,32.73
2018-03-30T00:06:28.288Z,31.80
2018-03-30T00:08:55.289Z,33.60
2018-03-30T00:11:28.269Z,30.90
2018-03-30T00:13:56.109Z,23.70
2018-03-30T00:16:23.089Z,31.93
2018-03-30T00:18:50.110Z,22.40
2018-03-30T00:21:17.209Z,20.30
2018-03-30T00:23:44.249Z,18.90
2018-03-30T00:26:11.289Z,20.80
2018-03-30T00:28:38.348Z,23.40
2018-03-30T00:31:05.350Z,25.10
2018-03-30T00:33:32.449Z,24.47
2018-03-30T00:35:59.529Z,25.93
2018-03-30T00:38:26.629Z,22.07
2018-03-30T00:40:53.769Z,24.67
2018-03-30T00:43:20.769Z,24.97
2018-03-30T00:45:48.109Z,27.90
2018-03-30T00:48:15.150Z,24.13
2018-03-30T00:50:42.209Z,22.90
2018-03-30T00:56:13.509Z,24.80
2018-03-30T00:58:41.288Z,24.20
2018-03-30T01:01:08.349Z,22.67
2018-03-30T01:03:35.350Z,21.90
2018-03-30T01:06:02.349Z,22.87
2018-03-30T01:08:29.349Z,24.50
2018-03-30T01:10:56.469Z,23.00
2018-03-30T01:13:23.469Z,23.50
2018-03-30T01:15:50.569Z,22.60
2018-03-30T01:18:17.691Z,22.67
2018-03-30T01:20:44.749Z,22.77
2018-03-30T01:23:11.809Z,23.77
2018-03-30T01:25:38.972Z,23.60
2018-03-30T01:28:06.029Z,27.07
2018-03-30T01:30:33.230Z,23.10
2018-03-30T01:33:00.350Z,25.53
2018-03-30T01:35:27.379Z,25.40
2018-03-30T01:37:54.419Z,26.87
2018-03-30T01:40:21.402Z,25.97
2018-03-30T01:42:48.362Z,27.90
2018-03-30T01:45:15.421Z,25.80
2018-03-30T01:47:42.449Z,27.90
2018-03-30T01:50:09.442Z,26.67
2018-03-30T01:52:36.480Z,27.40
2018-03-30T01:55:03.545Z,30.23
2018-03-30T01:57:30.541Z,29.40
2018-03-30T01:59:57.561Z,31.43
2018-03-30T02:02:30.261Z,26.90
2018-03-30T02:04:57.241Z,24.73
2018-03-30T02:07:24.141Z,24.63
2018-03-30T02:09:51.043Z,24.13
2018-03-30T02:12:18.022Z,27.03
2018-03-30T02:14:45.022Z,26.83
2018-03-30T02:17:19.781Z,22.03
2018-03-30T02:19:47.521Z,23.47
2018-03-30T02:22:14.468Z,26.00
2018-03-30T02:24:41.523Z,25.03
2018-03-30T02:27:08.501Z,25.70
2018-03-30T02:29:35.441Z,24.60
2018-03-30T02:32:02.542Z,24.33
2018-03-30T02:34:29.683Z,25.47
2018-03-30T02:36:56.722Z,26.03
2018-03-30T02:39:23.763Z,27.00
2018-03-30T02:41:50.762Z,22.77
2018-03-30T02:44:18.504Z,24.20
2018-03-30T02:46:45.522Z,22.83
2018-03-30T02:49:12.503Z,21.30
2018-03-30T02:51:40.243Z,20.93
2018-03-30T02:54:07.285Z,21.83
2018-03-30T02:56:34.284Z,20.63
2018-03-30T02:59:01.267Z,22.87
2018-03-30T03:01:28.342Z,21.87
2018-03-30T03:03:55.323Z,28.30
2018-03-30T03:06:22.223Z,25.37
2018-03-30T03:08:49.182Z,24.83
2018-03-30T03:11:16.122Z,24.77
2018-03-30T03:13:43.160Z,25.27
2018-03-30T03:16:10.182Z,25.83
2018-03-30T03:18:37.162Z,25.57
2018-03-30T03:21:04.202Z,24.97
2018-03-30T03:23:31.222Z,23.43
2018-03-30T03:25:58.205Z,23.90
2018-03-30T03:28:25.181Z,25.50
2018-03-30T03:30:52.223Z,24.00
2018-03-30T03:33:19.241Z,24.07
2018-03-30T03:35:46.245Z,25.67
2018-03-30T03:38:13.321Z,26.53
2018-03-30T03:40:40.361Z,30.10
2018-03-30T03:43:07.361Z,27.63
2018-03-30T03:45:34.481Z,25.47
2018-03-30T03:48:01.541Z,26.73
2018-03-30T03:50:28.561Z,25.83
2018-03-30T03:52:55.641Z,24.90
2018-03-30T03:55:23.361Z,26.17
2018-03-30T03:57:50.361Z,22.47
2018-03-30T04:00:17.361Z,26.20
2018-03-30T04:02:44.321Z,27.30
2018-03-30T04:05:11.325Z,25.80
2018-03-30T04:07:38.284Z,25.43
2018-03-30T04:10:05.221Z,25.03
2018-03-30T04:12:32.302Z,27.10
2018-03-30T04:14:59.324Z,25.77
2018-03-30T04:17:26.341Z,26.40
2018-03-30T04:19:53.401Z,24.87
2018-03-30T04:22:20.441Z,22.90
2018-03-30T04:24:47.423Z,24.73
2018-03-30T04:27:14.572Z,24.97
2018-03-30T04:29:41.581Z,28.03
2018-03-30T04:32:08.661Z,27.60
2018-03-30T04:34:35.721Z,28.13
2018-03-30T04:37:02.761Z,25.87
2018-03-30T04:39:29.805Z,27.27
2018-03-30T04:41:56.821Z,27.13
2018-03-30T04:44:23.841Z,30.97
2018-03-30T04:46:50.861Z,29.27
2018-03-30T04:49:17.922Z,29.70
2018-03-30T04:51:45.662Z,25.30
2018-03-30T04:54:12.701Z,25.77
2018-03-30T04:56:39.681Z,27.47
2018-03-30T04:59:06.740Z,28.13
2018-03-30T05:01:33.881Z,27.70
2018-03-30T05:04:00.860Z,26.00
2018-03-30T05:06:34.760Z,26.00
2018-03-30T05:09:01.701Z,22.83
2018-03-30T05:11:28.681Z,21.80
2018-03-30T05:13:55.701Z,20.40
2018-03-30T05:16:22.740Z,19.23
2018-03-30T05:18:49.743Z,19.93
2018-03-30T05:21:17.601Z,16.13
2018-03-30T05:23:44.660Z,17.17
2018-03-30T05:26:11.666Z,17.33
2018-03-30T05:28:38.666Z,14.50
2018-03-30T05:31:05.706Z,14.20
2018-03-30T05:33:32.701Z,14.87
2018-03-30T05:35:59.761Z,14.90
2018-03-30T05:38:26.781Z,14.00
2018-03-30T05:40:53.780Z,13.73
2018-03-30T05:43:20.861Z,13.97
2018-03-30T05:45:47.901Z,13.97
2018-03-30T05:48:15.701Z,13.90
2018-03-30T05:50:42.742Z,13.03
2018-03-30T05:53:09.741Z,13.60
2018-03-30T05:55:36.741Z,14.13
2018-03-30T05:58:03.843Z,13.57
2018-03-30T06:00:30.883Z,12.47
2018-03-30T06:02:57.861Z,11.33
2018-03-30T06:05:24.861Z,12.30
2018-03-30T06:07:51.841Z,11.13
2018-03-30T06:10:18.861Z,10.30
2018-03-30T06:12:45.766Z,10.70
2018-03-30T06:15:12.661Z,11.93
2018-03-30T06:17:39.701Z,10.33
2018-03-30T06:20:06.781Z,9.80
2018-03-30T06:22:33.801Z,10.80
2018-03-30T06:25:00.861Z,10.50
2018-03-30T06:27:27.861Z,10.40
2018-03-30T06:29:54.921Z,9.30
2018-03-30T06:32:21.980Z,9.00
2018-03-30T06:34:48.960Z,8.63
2018-03-30T06:37:16.021Z,9.60
2018-03-30T06:39:43.121Z,8.37
2018-03-30T06:42:10.181Z,10.37
2018-03-30T06:44:37.921Z,9.23
2018-03-30T06:47:04.961Z,9.43
2018-03-30T06:49:31.982Z,8.70
2018-03-30T06:51:58.943Z,8.90
2018-03-30T06:54:25.981Z,7.13
2018-03-30T06:56:53.041Z,7.97
2018-03-30T06:59:20.041Z,8.80
2018-03-30T07:01:47.001Z,7.10
2018-03-30T07:04:14.741Z,6.90
2018-03-30T07:06:41.721Z,9.10
2018-03-30T07:09:08.765Z,7.50
2018-03-30T07:11:35.722Z,6.43
2018-03-30T07:14:02.782Z,7.87
2018-03-30T07:16:29.821Z,6.33
2018-03-30T07:18:56.861Z,6.40
2018-03-30T07:21:23.860Z,6.03
2018-03-30T07:23:50.882Z,7.40
2018-03-30T07:26:17.912Z,5.40
2018-03-30T07:28:45.000Z,5.37
2018-03-30T07:31:12.041Z,6.13
2018-03-30T07:33:39.062Z,5.70
2018-03-30T07:36:06.101Z,6.47
2018-03-30T07:38:33.141Z,5.93
2018-03-30T07:41:00.141Z,5.03
2018-03-30T07:43:27.161Z,5.00
2018-03-30T07:45:54.201Z,4.63
2018-03-30T07:48:21.182Z,6.43
2018-03-30T07:50:48.163Z,4.43
2018-03-30T07:53:15.201Z,5.30
2018-03-30T07:55:42.161Z,5.37
2018-03-30T07:58:09.081Z,4.83
2018-03-30T08:00:36.121Z,6.97
2018-03-30T08:03:03.181Z,5.57
2018-03-30T08:05:30.202Z,6.00
2018-03-30T08:07:57.201Z,6.90
2018-03-30T08:10:24.224Z,5.80
2018-03-30T08:12:51.304Z,5.63
2018-03-30T08:15:23.321Z,5.47
2018-03-30T08:17:50.381Z,6.60
2018-03-30T08:20:17.421Z,6.97
2018-03-30T08:22:44.441Z,5.00
2018-03-30T08:25:11.501Z,5.87
2018-03-30T08:27:38.562Z,8.40
2018-03-30T08:30:05.562Z,4.70
2018-03-30T08:32:32.626Z,4.50
2018-03-30T08:34:59.622Z,5.10
2018-03-30T08:37:26.601Z,4.03
2018-03-30T08:39:53.627Z,3.93
2018-03-30T08:42:20.641Z,3.67
2018-03-30T08:44:47.641Z,4.37
2018-03-30T08:47:15.447Z,2.83
2018-03-30T08:49:42.461Z,3.03
2018-03-30T08:52:09.441Z,2.63
2018-03-30T08:54:36.502Z,2.27
2018-03-30T08:57:03.541Z,3.07
2018-03-30T08:59:30.601Z,2.13
2018-03-30T09:01:57.741Z,4.10
2018-03-30T09:04:24.801Z,1.87
2018-03-30T09:06:51.802Z,2.03
2018-03-30T09:09:18.861Z,2.70
2018-03-30T09:11:45.883Z,4.03
2018-03-30T09:14:12.921Z,2.20
2018-03-30T09:16:40.622Z,2.10
2018-03-30T09:19:07.561Z,1.97
2018-03-30T09:21:34.662Z,3.97
2018-03-30T09:24:01.681Z,2.93
2018-03-30T09:26:28.741Z,1.93
2018-03-30T09:28:55.721Z,1.90
2018-03-30T09:31:30.541Z,2.10
2018-03-30T09:33:58.401Z,1.93
2018-03-30T09:36:26.161Z,1.70
2018-03-30T09:38:53.221Z,2.63
2018-03-30T09:41:20.981Z,1.50
2018-03-30T09:43:48.742Z,2.50
2018-03-30T09:46:16.522Z,2.43
2018-03-30T09:48:43.541Z,1.70
2018-03-30T09:51:10.605Z,3.23
2018-03-30T09:53:38.442Z,1.90
2018-03-30T09:56:05.526Z,1.90
2018-03-30T09:58:32.587Z,2.00
2018-03-30T10:01:01.629Z,3.00
2018-03-30T10:03:28.787Z,1.47
2018-03-30T10:05:55.827Z,3.13
2018-03-30T10:08:22.867Z,1.77
2018-03-30T10:10:49.994Z,2.33
2018-03-30T10:13:17.087Z,1.93
2018-03-30T10:15:44.949Z,2.20
2018-03-30T10:18:11.989Z,6.20
2018-03-30T10:20:39.007Z,2.10
2018-03-30T10:23:05.992Z,2.67
2018-03-30T10:25:33.027Z,2.13
2018-03-30T10:28:00.047Z,2.97
2018-03-30T10:30:27.087Z,2.33
2018-03-30T10:32:54.148Z,2.97
2018-03-30T10:35:21.228Z,2.83
2018-03-30T10:37:48.227Z,2.30
2018-03-30T10:40:15.287Z,2.93
2018-03-30T10:42:42.366Z,3.20
2018-03-30T10:45:09.326Z,1.80
2018-03-30T10:47:36.328Z,2.00
2018-03-30T10:50:04.870Z,1.87
2018-03-30T10:52:31.926Z,1.70
2018-03-30T10:54:58.946Z,2.07
2018-03-30T10:57:26.707Z,2.90
2018-03-30T10:59:54.487Z,1.90
2018-03-30T11:02:21.526Z,1.73
2018-03-30T11:04:48.547Z,1.90
2018-03-30T11:07:15.586Z,1.70
2018-03-30T11:09:42.574Z,1.60
2018-03-30T11:12:09.608Z,2.63
2018-03-30T11:14:36.667Z,2.73
2018-03-30T11:17:03.727Z,1.60
2018-03-30T11:19:30.766Z,1.83
2018-03-30T11:21:57.830Z,3.00
2018-03-30T11:24:24.817Z,3.07
2018-03-30T11:26:51.814Z,1.77
2018-03-30T11:29:18.887Z,2.63
2018-03-30T11:31:46.007Z,2.33
2018-03-30T11:34:13.107Z,3.47
2018-03-30T11:36:40.157Z,3.07
2018-03-30T11:39:07.277Z,1.93
2018-03-30T11:41:34.362Z,2.20
2018-03-30T11:44:02.397Z,2.33
2018-03-30T11:46:29.396Z,2.87
2018-03-30T11:48:56.506Z,3.33
2018-03-30T11:51:23.637Z,2.23
2018-03-30T11:53:50.608Z,1.90
2018-03-30T11:56:17.726Z,4.20
2018-03-30T11:58:44.844Z,2.00
2018-03-30T12:01:11.902Z,2.80
2018-03-30T12:03:43.970Z,2.27
2018-03-30T12:06:10.969Z,2.53
2018-03-30T12:08:38.050Z,2.00
2018-03-30T12:11:04.990Z,2.13
2018-03-30T12:13:32.062Z,1.70
2018-03-30T12:15:59.106Z,1.77
2018-03-30T12:18:26.090Z,3.40
2018-03-30T12:20:53.047Z,2.23
2018-03-30T12:23:20.706Z,2.30
2018-03-30T12:25:47.667Z,1.67
2018-03-30T12:28:15.445Z,2.07
2018-03-30T12:30:42.419Z,2.30
2018-03-30T12:33:09.267Z,2.77
2018-03-30T12:35:36.329Z,3.00
2018-03-30T12:38:03.187Z,2.70
2018-03-30T12:40:30.061Z,2.53
2018-03-30T12:42:57.054Z,3.50
2018-03-30T12:45:24.147Z,1.50
2018-03-30T12:47:51.114Z,2.93
2018-03-30T12:50:18.067Z,1.60
2018-03-30T12:52:44.946Z,1.53
2018-03-30T12:55:11.796Z,3.43
2018-03-30T12:57:38.949Z,1.80
2018-03-30T13:00:05.986Z,4.90
2018-03-30T13:02:32.887Z,1.63
2018-03-30T13:05:00.627Z,1.50
2018-03-30T13:07:27.634Z,1.20
2018-03-30T13:09:54.511Z,1.10
2018-03-30T13:12:21.402Z,2.73
2018-03-30T13:14:48.392Z,1.27
2018-03-30T13:17:15.426Z,2.63
2018-03-30T13:19:42.295Z,1.63
2018-03-30T13:22:09.387Z,1.30
2018-03-30T13:24:36.327Z,0.97
2018-03-30T13:27:03.335Z,1.20
2018-03-30T13:29:30.201Z,1.03
2018-03-30T13:31:57.219Z,2.43
2018-03-30T13:34:24.309Z,2.00
2018-03-30T13:36:51.335Z,1.20
2018-03-30T13:39:18.273Z,1.93
2018-03-30T13:41:45.287Z,1.10
2018-03-30T13:44:13.208Z,1.90
2018-03-30T13:46:40.123Z,2.90
2018-03-30T13:49:07.083Z,1.30
2018-03-30T13:51:42.068Z,3.00
2018-03-30T13:54:25.907Z,2.63
2018-03-30T13:57:00.387Z,1.77
2018-03-30T13:59:28.534Z,1.50
2018-03-30T14:02:15.220Z,2.13
2018-03-30T14:05:05.969Z,1.90
2018-03-30T14:10:58.727Z,1.23
2018-03-30T14:13:25.871Z,3.07
2018-03-30T14:15:59.506Z,1.83
2018-03-30T14:18:53.134Z,1.10
2018-03-30T14:21:35.843Z,2.00
2018-03-30T14:24:09.107Z,1.50
2018-03-30T14:26:58.888Z,1.67
2018-03-30T14:29:48.775Z,2.77
2018-03-30T14:32:37.427Z,2.07
2018-03-30T14:38:12.424Z,2.03
2018-03-30T14:40:44.147Z,1.40
2018-03-30T14:43:16.056Z,1.77
2018-03-30T14:48:45.470Z,1.40
2018-03-30T14:51:36.354Z,2.80
2018-03-30T14:54:06.467Z,1.67
2018-03-30T14:59:33.556Z,4.03
2018-03-30T15:02:06.347Z,1.73
2018-03-30T15:04:35.448Z,1.20
2018-03-30T15:07:14.247Z,2.57
2018-03-30T15:12:45.467Z,1.43
2018-03-30T15:15:19.387Z,2.00
2018-03-30T15:17:48.455Z,1.30
2018-03-30T15:20:21.211Z,2.30
2018-03-30T15:23:20.888Z,3.33
2018-03-30T15:25:49.975Z,2.30
2018-03-30T15:28:16.954Z,2.70
2018-03-30T15:30:55.067Z,1.70
2018-03-30T15:33:50.407Z,1.70
2018-03-30T15:36:58.987Z,2.60
2018-03-30T15:39:26.010Z,1.73
2018-03-30T15:41:53.965Z,1.60
2018-03-30T15:44:20.971Z,3.73
2018-03-30T15:46:52.248Z,2.53
2018-03-30T15:49:22.421Z,2.33
2018-03-30T15:51:52.427Z,3.27
2018-03-30T15:54:18.939Z,1.50
2018-03-30T15:56:46.187Z,3.60
2018-03-30T15:59:13.431Z,2.53
2018-03-30T16:01:40.711Z,1.60
2018-03-30T16:04:07.794Z,3.97
2018-03-30T16:06:40.595Z,2.03
2018-03-30T16:09:15.427Z,2.77
2018-03-30T16:11:48.007Z,2.53
2018-03-30T16:14:15.080Z,2.63
2018-03-30T16:16:42.459Z,6.93
2018-03-30T16:19:09.787Z,5.20
2018-03-30T16:21:36.408Z,1.30
2018-03-30T16:24:02.910Z,2.43
2018-03-30T16:26:29.507Z,6.33
2018-03-30T16:29:02.147Z,2.20
2018-03-30T16:31:29.068Z,1.40
2018-03-30T16:33:55.627Z,1.47
2018-03-30T16:36:22.249Z,2.60
2018-03-30T16:38:48.807Z,1.60
2018-03-30T16:41:15.347Z,2.30
2018-03-30T16:43:41.907Z,3.60
2018-03-30T16:46:08.507Z,4.23
2018-03-30T16:48:35.047Z,2.00
2018-03-30T16:51:01.611Z,2.33
2018-03-30T16:53:28.215Z,3.57
2018-03-30T16:55:54.807Z,2.47
2018-03-30T16:58:22.087Z,1.90
2018-03-30T17:00:48.728Z,2.00
2018-03-30T17:03:15.287Z,3.10
2018-03-30T17:05:41.895Z,1.70
2018-03-30T17:08:08.567Z,1.30
2018-03-30T17:10:35.188Z,1.97
2018-03-30T17:13:01.747Z,2.67
2018-03-30T17:15:28.387Z,1.90
2018-03-30T17:17:54.948Z,3.27
2018-03-30T17:20:21.507Z,1.63
2018-03-30T17:22:48.507Z,1.90
2018-03-30T17:25:15.022Z,2.67
2018-03-30T17:27:41.607Z,1.90
2018-03-30T17:30:08.228Z,5.13
2018-03-30T17:32:34.907Z,3.70
2018-03-30T17:35:01.447Z,2.43
2018-03-30T17:37:28.069Z,4.00
2018-03-30T17:39:54.727Z,3.00
2018-03-30T17:42:21.287Z,2.87
2018-03-30T17:44:47.867Z,2.73
2018-03-30T17:47:14.426Z,4.60
2018-03-30T17:49:40.967Z,2.63
2018-03-30T17:52:07.564Z,3.30
2018-03-30T17:54:34.107Z,4.60
2018-03-30T17:57:00.727Z,2.30
2018-03-30T17:59:27.426Z,3.27
2018-03-30T18:01:54.027Z,4.53
2018-03-30T18:04:20.588Z,3.20
2018-03-30T18:06:47.267Z,4.10
2018-03-30T18:09:13.895Z,3.23
2018-03-30T18:11:40.567Z,3.20
2018-03-30T18:14:21.587Z,2.43
2018-03-30T18:17:01.928Z,2.67
2018-03-30T18:19:41.591Z,2.57
2018-03-30T18:22:21.907Z,3.93
2018-03-30T18:25:01.827Z,3.70
2018-03-30T18:27:42.248Z,2.33
2018-03-30T18:30:21.987Z,2.83
2018-03-30T18:33:02.498Z,2.37
2018-03-30T18:35:42.227Z,2.37
2018-03-30T18:38:21.987Z,4.30
2018-03-30T18:41:01.689Z,2.80
2018-03-30T18:43:41.709Z,3.50
2018-03-30T18:46:21.307Z,3.17
2018-03-30T18:49:00.936Z,3.13
2018-03-30T18:51:40.667Z,2.40
2018-03-30T18:54:20.376Z,2.47
2018-03-30T18:57:00.068Z,2.73
2018-03-30T18:59:39.767Z,3.43
2018-03-30T19:02:19.529Z,3.50
2018-03-30T19:05:00.068Z,3.53
2018-03-30T19:07:39.627Z,4.70
2018-03-30T19:10:19.348Z,3.37
2018-03-30T19:12:58.988Z,2.90
2018-03-30T19:15:38.468Z,3.53
2018-03-30T19:18:18.229Z,2.97
2018-03-30T19:20:57.953Z,4.17
2018-03-30T19:23:37.816Z,5.90
2018-03-30T19:26:18.276Z,3.63
2018-03-30T19:28:58.217Z,4.03
2018-03-30T19:31:38.056Z,3.13
2018-03-30T19:34:18.488Z,3.47
2018-03-30T19:36:59.335Z,2.93
2018-03-30T19:39:39.415Z,3.13
2018-03-30T19:42:19.847Z,3.23
2018-03-30T19:44:59.713Z,3.93
2018-03-30T19:47:39.347Z,4.73
2018-03-30T19:50:19.848Z,3.53
2018-03-30T19:52:59.816Z,3.47
2018-03-30T19:55:39.447Z,3.67
2018-03-30T19:58:20.147Z,3.77
2018-03-30T20:01:00.013Z,3.37
2018-03-30T20:03:39.831Z,4.03
2018-03-30T20:06:20.270Z,3.07
2018-03-30T20:08:59.907Z,3.13
2018-03-30T20:11:39.687Z,3.40
2018-03-30T20:14:19.448Z,3.30
2018-03-30T20:16:59.367Z,4.23
2018-03-30T20:19:39.068Z,3.20
2018-03-30T20:22:19.005Z,4.40
2018-03-30T20:24:59.589Z,3.97
2018-03-30T20:27:39.287Z,3.47
2018-03-30T20:30:19.227Z,7.73
2018-03-30T20:32:58.867Z,3.00
2018-03-30T20:35:39.368Z,3.37
2018-03-30T20:38:19.128Z,5.40
2018-03-30T20:40:59.027Z,3.13
2018-03-30T20:43:38.868Z,3.43
2018-03-30T20:46:18.407Z,4.40
2018-03-30T20:48:57.989Z,4.20
2018-03-30T20:51:37.768Z,3.57
2018-03-30T20:54:17.550Z,4.37
2018-03-30T20:56:58.247Z,3.70
2018-03-30T20:59:38.135Z,3.50
2018-03-30T21:02:18.548Z,5.03
2018-03-30T21:04:59.027Z,3.70
2018-03-30T21:07:39.015Z,3.77
2018-03-30T21:10:18.891Z,3.40
2018-03-30T21:12:58.547Z,3.30
2018-03-30T21:15:38.308Z,4.60
2018-03-30T21:18:18.807Z,3.13
2018-03-30T21:20:58.327Z,4.23
2018-03-30T21:23:38.067Z,4.37
2018-03-30T21:26:18.327Z,2.87
2018-03-30T21:28:58.627Z,4.00
2018-03-30T21:31:38.347Z,3.60
2018-03-30T21:34:18.267Z,3.37
2018-03-30T21:36:58.028Z,4.17
2018-03-30T21:39:37.687Z,4.03
2018-03-30T21:42:17.335Z,4.43
2018-03-30T21:44:57.028Z,3.27
2018-03-30T21:47:36.786Z,3.17
2018-03-30T21:50:16.605Z,5.27
2018-03-30T21:52:56.387Z,3.93
2018-03-30T21:55:36.147Z,4.87
2018-03-30T21:58:15.991Z,3.57
2018-03-30T22:00:55.668Z,4.97
2018-03-30T22:03:35.307Z,5.07
2018-03-30T22:06:15.028Z,4.83
2018-03-30T22:08:54.887Z,4.57
2018-03-30T22:11:34.947Z,5.50
2018-03-30T22:14:15.127Z,5.63
2018-03-30T22:16:54.967Z,2.60
2018-03-30T22:19:34.567Z,3.43
2018-03-30T22:22:14.426Z,3.00
2018-03-30T22:24:54.988Z,3.97
2018-03-30T22:27:34.647Z,3.00
2018-03-30T22:30:14.301Z,3.10
2018-03-30T22:32:53.867Z,3.07
2018-03-30T22:35:33.667Z,4.73
2018-03-30T22:38:14.227Z,5.07
2018-03-30T22:40:53.947Z,4.40
2018-03-30T22:43:33.667Z,3.23
2018-03-30T22:46:13.207Z,2.60
2018-03-30T22:48:52.827Z,5.30
2018-03-30T22:51:32.547Z,3.80
2018-03-30T22:54:12.087Z,5.10
2018-03-30T22:56:51.766Z,4.40
2018-03-30T22:59:31.587Z,4.13
2018-03-30T23:02:12.029Z,5.10
2018-03-30T23:04:51.947Z,4.67
2018-03-30T23:07:31.487Z,3.13
2018-03-30T23:10:11.865Z,3.23
2018-03-30T23:12:52.055Z,3.93
2018-03-30T23:15:32.087Z,7.07
2018-03-30T23:18:11.747Z,3.93
2018-03-30T23:20:51.427Z,3.07
2018-03-30T23:23:31.187Z,3.93
2018-03-30T23:26:10.887Z,5.33
2018-03-30T23:28:50.546Z,4.17
2018-03-30T23:31:30.247Z,3.17
2018-03-30T23:34:09.989Z,3.10
2018-03-30T23:36:49.606Z,3.73
2018-03-30T23:39:30.147Z,3.03
2018-03-30T23:42:10.092Z,4.97
2018-03-30T23:44:50.695Z,3.13
2018-03-30T23:47:30.547Z,3.57
2018-03-30T23:50:10.947Z,3.70
2018-03-30T23:52:50.747Z,5.17
2018-03-30T23:55:31.026Z,3.90
2018-03-30T23:58:10.809Z,4.20
